createdAt,value
2019-01-27T00:01:58.917Z,40.10
2019-01-27T00:04:31.108Z,46.43
2019-01-27T00:07:02.735Z,40.53
2019-01-27T00:09:33.998Z,38.67
2019-01-27T00:12:06.575Z,40.97
2019-01-27T00:14:37.838Z,41.47
2019-01-27T00:17:09.357Z,26.47
2019-01-27T00:19:40.044Z,38.07
2019-01-27T00:22:11.075Z,23.27
2019-01-27T00:24:42.697Z,32.60
2019-01-27T00:27:13.997Z,34.93
2019-01-27T00:29:45.096Z,34.67
2019-01-27T00:32:17.184Z,37.90
2019-01-27T00:34:48.722Z,31.77
2019-01-27T00:37:20.567Z,39.57
2019-01-27T00:39:52.400Z,29.93
2019-01-27T00:42:23.657Z,23.30
2019-01-27T00:44:55.203Z,37.30
2019-01-27T00:47:26.315Z,35.07
2019-01-27T00:49:57.911Z,41.93
2019-01-27T00:52:29.592Z,28.43
2019-01-27T00:55:00.469Z,48.47
2019-01-27T00:57:31.776Z,47.23
2019-01-27T01:00:03.370Z,38.27
2019-01-27T01:02:34.727Z,41.00
2019-01-27T01:05:07.667Z,39.13
2019-01-27T01:07:38.739Z,31.63
2019-01-27T01:10:11.400Z,40.20
2019-01-27T01:12:42.895Z,36.53
2019-01-27T01:15:14.953Z,43.70
2019-01-27T01:17:46.176Z,43.00
2019-01-27T01:20:19.491Z,42.67
2019-01-27T01:22:52.676Z,39.20
2019-01-27T01:25:24.851Z,44.33
2019-01-27T01:27:56.204Z,39.33
2019-01-27T01:30:29.385Z,41.33
2019-01-27T01:33:00.345Z,39.33
2019-01-27T01:35:32.134Z,34.97
2019-01-27T01:38:03.470Z,33.13
2019-01-27T01:40:34.451Z,43.43
2019-01-27T01:43:06.105Z,41.87
2019-01-27T01:45:37.625Z,35.47
2019-01-27T01:48:09.465Z,39.43
2019-01-27T01:50:41.036Z,36.40
2019-01-27T01:53:12.591Z,37.90
2019-01-27T01:55:44.022Z,41.70
2019-01-27T01:58:17.115Z,33.20
2019-01-27T02:00:48.482Z,29.20
2019-01-27T02:03:19.688Z,31.67
2019-01-27T02:05:53.387Z,27.53
2019-01-27T02:08:24.713Z,25.03
2019-01-27T02:10:56.389Z,28.57
2019-01-27T02:13:28.283Z,24.13
2019-01-27T02:16:10.097Z,27.27
2019-01-27T02:18:42.237Z,34.43
2019-01-27T02:21:13.565Z,20.20
2019-01-27T02:23:44.787Z,36.30
2019-01-27T02:26:16.207Z,30.10
2019-01-27T02:28:47.911Z,36.77
2019-01-27T02:31:19.413Z,29.03
2019-01-27T02:33:50.415Z,28.57
2019-01-27T02:36:22.540Z,32.07
2019-01-27T02:38:54.206Z,33.33
2019-01-27T02:41:25.538Z,33.33
2019-01-27T02:43:56.386Z,30.87
2019-01-27T02:46:28.420Z,19.50
2019-01-27T02:48:59.502Z,18.33
2019-01-27T02:51:30.861Z,26.33
2019-01-27T02:54:02.303Z,31.57
2019-01-27T02:56:33.956Z,39.27
2019-01-27T02:59:05.832Z,32.17
2019-01-27T03:01:37.100Z,38.60
2019-01-27T03:04:08.604Z,35.97
2019-01-27T03:06:50.425Z,38.27
2019-01-27T03:09:26.096Z,45.30
2019-01-27T03:12:01.467Z,40.17
2019-01-27T03:14:32.744Z,44.67
2019-01-27T03:17:04.697Z,46.67
2019-01-27T03:19:36.145Z,43.33
2019-01-27T03:22:07.844Z,39.00
2019-01-27T03:24:39.272Z,50.53
2019-01-27T03:27:11.392Z,44.67
2019-01-27T03:29:42.825Z,49.67
2019-01-27T03:32:13.532Z,48.27
2019-01-27T03:34:45.007Z,49.63
2019-01-27T03:37:16.751Z,38.10
2019-01-27T03:39:48.363Z,45.20
2019-01-27T03:42:19.884Z,43.93
2019-01-27T03:44:57.980Z,42.90
2019-01-27T03:47:29.319Z,44.13
2019-01-27T03:50:00.543Z,44.77
2019-01-27T03:52:31.591Z,52.57
2019-01-27T03:55:03.008Z,49.23
2019-01-27T03:57:34.577Z,48.60
2019-01-27T04:00:07.661Z,39.37
2019-01-27T04:02:38.271Z,39.73
2019-01-27T04:05:09.662Z,35.50
2019-01-27T04:08:01.774Z,28.93
2019-01-27T04:10:33.554Z,23.07
2019-01-27T04:13:05.012Z,25.60
2019-01-27T04:15:36.984Z,28.03
2019-01-27T04:18:07.910Z,28.33
2019-01-27T04:20:39.382Z,24.97
2019-01-27T04:23:11.581Z,27.17
2019-01-27T04:25:44.053Z,33.03
2019-01-27T04:28:15.474Z,23.70
2019-01-27T04:30:47.184Z,22.30
2019-01-27T04:33:17.823Z,26.97
2019-01-27T04:35:49.453Z,20.27
2019-01-27T04:38:20.913Z,20.23
2019-01-27T04:40:53.111Z,23.03
2019-01-27T04:43:24.085Z,21.90
2019-01-27T04:45:54.655Z,16.07
2019-01-27T04:48:26.016Z,22.87
2019-01-27T04:50:56.709Z,25.40
2019-01-27T04:53:28.026Z,19.97
2019-01-27T04:56:00.125Z,24.87
2019-01-27T04:58:31.256Z,24.53
2019-01-27T05:01:03.056Z,21.33
2019-01-27T05:03:46.693Z,27.57
2019-01-27T05:06:18.005Z,20.13
2019-01-27T05:08:49.375Z,19.87
2019-01-27T05:11:20.802Z,16.07
2019-01-27T05:13:52.202Z,18.03
2019-01-27T05:16:23.724Z,24.27
2019-01-27T05:18:55.497Z,27.87
2019-01-27T05:21:27.482Z,23.50
2019-01-27T05:23:58.929Z,19.40
2019-01-27T05:26:30.299Z,20.27
2019-01-27T05:29:01.944Z,26.13
2019-01-27T05:31:32.844Z,26.77
2019-01-27T05:34:04.454Z,26.40
2019-01-27T05:36:35.331Z,27.40
2019-01-27T05:39:09.622Z,30.30
2019-01-27T05:41:40.369Z,20.80
2019-01-27T05:44:12.028Z,26.53
2019-01-27T05:46:43.858Z,22.07
2019-01-27T05:49:14.813Z,28.23
2019-01-27T05:51:46.180Z,23.07
2019-01-27T05:54:20.148Z,20.47
2019-01-27T05:56:56.523Z,22.47
2019-01-27T05:59:24.709Z,27.53
2019-01-27T06:01:55.232Z,25.03
2019-01-27T06:04:25.798Z,21.00
2019-01-27T06:06:56.640Z,25.30
2019-01-27T06:09:27.298Z,16.80
2019-01-27T06:11:57.942Z,25.57
2019-01-27T06:14:28.597Z,25.20
2019-01-27T06:16:59.212Z,22.70
2019-01-27T06:19:29.787Z,29.17
2019-01-27T06:22:00.364Z,28.77
2019-01-27T06:24:30.861Z,30.33
2019-01-27T06:27:01.344Z,33.87
2019-01-27T06:29:32.023Z,31.97
2019-01-27T06:32:02.720Z,31.43
2019-01-27T06:34:33.333Z,29.87
2019-01-27T06:37:04.123Z,34.60
2019-01-27T06:39:34.712Z,29.80
2019-01-27T06:42:05.431Z,27.17
2019-01-27T06:44:35.991Z,21.90
2019-01-27T06:47:06.595Z,16.37
2019-01-27T06:49:37.190Z,28.50
2019-01-27T06:52:07.981Z,21.67
2019-01-27T06:54:38.606Z,17.93
2019-01-27T06:57:10.428Z,21.87
2019-01-27T06:59:55.034Z,25.93
2019-01-27T07:02:39.271Z,15.83
2019-01-27T07:05:17.485Z,19.97
2019-01-27T07:08:12.860Z,12.87
2019-01-27T07:11:01.351Z,20.37
2019-01-27T07:13:44.429Z,21.23
2019-01-27T07:16:32.629Z,25.13
2019-01-27T07:19:17.526Z,24.07
2019-01-27T07:22:05.785Z,21.53
2019-01-27T07:25:01.282Z,24.17
2019-01-27T07:27:50.735Z,31.97
2019-01-27T07:30:40.305Z,29.47
2019-01-27T07:33:28.551Z,23.00
2019-01-27T07:36:33.014Z,20.67
2019-01-27T07:39:31.623Z,23.47
2019-01-27T07:42:11.644Z,28.37
2019-01-27T07:45:03.997Z,28.77
2019-01-27T07:47:49.766Z,25.33
2019-01-27T07:50:42.606Z,26.87
2019-01-27T07:53:26.434Z,19.63
2019-01-27T07:56:19.247Z,25.80
2019-01-27T07:59:11.946Z,22.90
2019-01-27T08:02:07.404Z,29.57
2019-01-27T08:04:56.809Z,23.00
2019-01-27T08:07:55.725Z,14.80
2019-01-27T08:10:54.553Z,21.17
2019-01-27T08:13:37.959Z,20.63
2019-01-27T08:16:36.554Z,23.30
2019-01-27T08:19:28.986Z,17.33
2019-01-27T08:22:24.243Z,17.83
2019-01-27T08:25:23.185Z,28.87
2019-01-27T08:28:22.002Z,24.60
2019-01-27T08:31:14.917Z,26.13
2019-01-27T08:34:13.249Z,15.83
2019-01-27T08:36:51.988Z,19.13
2019-01-27T08:39:34.374Z,18.17
2019-01-27T08:42:34.420Z,17.93
2019-01-27T08:45:14.266Z,22.37
2019-01-27T08:47:45.181Z,19.23
2019-01-27T08:50:18.211Z,15.23
2019-01-27T08:52:49.056Z,12.53
2019-01-27T08:55:19.950Z,15.00
2019-01-27T08:57:50.705Z,21.90
2019-01-27T09:00:30.223Z,19.60
2019-01-27T09:03:19.105Z,26.03
2019-01-27T09:06:24.027Z,25.57
2019-01-27T09:09:14.076Z,20.27
2019-01-27T09:12:02.668Z,22.53
2019-01-27T09:14:47.545Z,23.03
2019-01-27T09:17:40.093Z,26.00
2019-01-27T09:20:28.706Z,23.30
2019-01-27T09:23:10.299Z,25.53
2019-01-27T09:26:02.670Z,21.60
2019-01-27T09:28:51.485Z,23.40
2019-01-27T09:31:30.693Z,19.77
2019-01-27T09:34:35.685Z,21.33
2019-01-27T09:37:34.433Z,22.63
2019-01-27T09:40:16.320Z,21.27
2019-01-27T09:43:04.289Z,23.80
2019-01-27T09:46:05.295Z,24.50
2019-01-27T09:48:33.588Z,30.20
2019-01-27T09:51:32.945Z,27.00
2019-01-27T09:54:13.185Z,25.60
2019-01-27T09:57:05.916Z,27.67
2019-01-27T09:59:58.084Z,25.57
2019-01-27T10:02:53.722Z,28.70
2019-01-27T10:05:40.213Z,29.93
2019-01-27T10:08:48.507Z,30.10
2019-01-27T10:11:26.664Z,25.60
2019-01-27T10:14:19.832Z,33.30
2019-01-27T10:17:05.272Z,26.43
2019-01-27T10:19:46.340Z,25.20
2019-01-27T10:22:25.887Z,27.40
2019-01-27T10:25:22.876Z,31.00
2019-01-27T10:28:30.862Z,25.60
2019-01-27T10:31:18.861Z,29.53
2019-01-27T10:34:05.814Z,27.67
2019-01-27T10:37:01.387Z,25.43
2019-01-27T10:39:39.905Z,28.37
2019-01-27T10:42:35.491Z,24.83
2019-01-27T10:45:25.029Z,24.80
2019-01-27T10:48:17.693Z,26.00
2019-01-27T10:51:08.996Z,27.13
2019-01-27T10:53:54.519Z,26.17
2019-01-27T10:56:33.018Z,23.97
2019-01-27T10:59:25.847Z,24.50
2019-01-27T11:02:13.815Z,23.23
2019-01-27T11:05:01.836Z,26.30
2019-01-27T11:07:51.732Z,24.40
2019-01-27T11:10:47.504Z,23.30
2019-01-27T11:13:27.428Z,24.90
2019-01-27T11:16:25.847Z,25.43
2019-01-27T11:19:14.864Z,22.43
2019-01-27T11:22:07.431Z,23.60
2019-01-27T11:24:46.506Z,22.97
2019-01-27T11:27:32.940Z,24.27
2019-01-27T11:30:27.110Z,25.07
2019-01-27T11:33:28.948Z,24.83
2019-01-27T11:36:24.349Z,28.80
2019-01-27T11:39:26.112Z,23.17
2019-01-27T11:42:20.823Z,25.30
2019-01-27T11:44:58.559Z,24.40
2019-01-27T11:47:47.262Z,27.13
2019-01-27T11:50:21.888Z,26.73
2019-01-27T11:52:58.379Z,23.97
2019-01-27T11:55:29.074Z,24.87
2019-01-27T11:57:59.642Z,21.83
2019-01-27T12:00:36.663Z,23.57
2019-01-27T12:03:07.145Z,25.60
2019-01-27T12:05:37.714Z,25.10
2019-01-27T12:08:09.891Z,24.43
2019-01-27T12:10:42.035Z,24.10
2019-01-27T12:13:12.755Z,20.93
2019-01-27T12:15:43.684Z,23.57
2019-01-27T12:18:14.603Z,24.27
2019-01-27T12:20:45.483Z,23.87
2019-01-27T12:23:16.052Z,23.40
2019-01-27T12:25:46.678Z,23.40
2019-01-27T12:28:17.584Z,22.70
2019-01-27T12:30:48.276Z,24.33
2019-01-27T12:33:18.947Z,21.70
2019-01-27T12:35:49.612Z,24.07
2019-01-27T12:38:22.883Z,21.87
2019-01-27T12:40:53.704Z,22.53
2019-01-27T12:43:25.858Z,21.07
2019-01-27T12:45:56.554Z,23.97
2019-01-27T12:48:27.153Z,21.83
2019-01-27T12:50:57.741Z,24.00
2019-01-27T12:53:28.387Z,27.20
2019-01-27T12:55:59.006Z,24.63
2019-01-27T12:58:29.740Z,24.03
2019-01-27T13:01:06.135Z,22.60
2019-01-27T13:03:36.802Z,22.73
2019-01-27T13:06:07.906Z,21.47
2019-01-27T13:08:39.058Z,24.70
2019-01-27T13:11:09.836Z,23.07
2019-01-27T13:13:40.673Z,20.80
2019-01-27T13:16:11.835Z,21.57
2019-01-27T13:18:42.814Z,23.90
2019-01-27T13:21:13.710Z,22.53
2019-01-27T13:23:44.230Z,23.57
2019-01-27T13:26:15.036Z,22.77
2019-01-27T13:28:46.014Z,21.97
2019-01-27T13:31:16.817Z,23.47
2019-01-27T13:33:47.672Z,24.17
2019-01-27T13:36:19.647Z,24.00
2019-01-27T13:38:51.201Z,22.90
2019-01-27T13:41:22.154Z,22.33
2019-01-27T13:43:52.836Z,22.50
2019-01-27T13:46:23.868Z,23.97
2019-01-27T13:48:54.725Z,22.30
2019-01-27T13:51:25.718Z,23.60
2019-01-27T13:53:56.443Z,22.27
2019-01-27T13:56:27.310Z,23.80
2019-01-27T13:58:58.069Z,22.30
2019-01-27T14:01:29.321Z,23.50
2019-01-27T14:03:59.806Z,21.30
2019-01-27T14:06:30.469Z,22.37
2019-01-27T14:09:01.178Z,23.63
2019-01-27T14:11:36.157Z,21.33
2019-01-27T14:14:07.080Z,21.97
2019-01-27T14:16:37.958Z,21.57
2019-01-27T14:19:08.966Z,25.67
2019-01-27T14:21:39.662Z,21.67
2019-01-27T14:24:10.807Z,22.30
2019-01-27T14:26:41.670Z,22.23
2019-01-27T14:29:12.922Z,21.10
2019-01-27T14:31:43.781Z,24.47
2019-01-27T14:34:14.840Z,24.33
2019-01-27T14:36:45.879Z,21.80
2019-01-27T14:39:16.784Z,21.40
2019-01-27T14:41:47.573Z,22.47
2019-01-27T14:44:18.278Z,20.57
2019-01-27T14:46:48.814Z,20.87
2019-01-27T14:49:20.272Z,21.07
2019-01-27T14:51:51.036Z,23.63
2019-01-27T14:54:22.081Z,23.47
2019-01-27T14:56:52.828Z,26.50
2019-01-27T14:59:23.616Z,24.50
2019-01-27T15:01:54.516Z,25.60
2019-01-27T15:04:26.708Z,26.10
2019-01-27T15:06:57.370Z,25.80
2019-01-27T15:09:28.150Z,30.47
2019-01-27T15:11:58.774Z,27.33
2019-01-27T15:14:29.626Z,26.43
2019-01-27T15:17:00.292Z,25.70
2019-01-27T15:19:31.361Z,26.33
2019-01-27T15:22:01.972Z,25.30
2019-01-27T15:24:32.819Z,26.30
2019-01-27T15:27:03.519Z,26.13
2019-01-27T15:29:34.382Z,26.03
2019-01-27T15:32:06.807Z,31.07
2019-01-27T15:34:37.346Z,28.20
2019-01-27T15:37:08.287Z,27.60
2019-01-27T15:39:38.891Z,28.27
2019-01-27T15:42:09.607Z,26.00
2019-01-27T15:44:40.221Z,27.17
2019-01-27T15:47:11.146Z,26.33
2019-01-27T15:49:41.743Z,26.67
2019-01-27T15:52:13.817Z,24.87
2019-01-27T15:54:44.448Z,28.80
2019-01-27T15:57:14.964Z,25.73
2019-01-27T15:59:45.611Z,26.50
2019-01-27T16:02:16.163Z,26.80
2019-01-27T16:04:46.690Z,26.30
2019-01-27T16:07:17.307Z,27.37
2019-01-27T16:09:48.571Z,26.67
2019-01-27T16:12:19.570Z,25.23
2019-01-27T16:14:50.468Z,24.80
2019-01-27T16:17:21.046Z,27.27
2019-01-27T16:19:51.711Z,26.57
2019-01-27T16:22:22.230Z,25.83
2019-01-27T16:24:52.927Z,25.90
2019-01-27T16:27:23.816Z,25.17
2019-01-27T16:30:12.741Z,26.93
2019-01-27T16:32:43.750Z,25.60
2019-01-27T16:35:17.647Z,25.70
2019-01-27T16:37:48.234Z,28.17
2019-01-27T16:40:18.984Z,23.47
2019-01-27T16:42:49.611Z,24.77
2019-01-27T16:45:20.265Z,24.47
2019-01-27T16:47:51.059Z,29.27
2019-01-27T16:50:22.130Z,30.93
2019-01-27T16:52:53.104Z,37.50
2019-01-27T16:55:24.113Z,34.00
2019-01-27T16:57:54.833Z,28.03
2019-01-27T17:00:27.538Z,28.57
2019-01-27T17:02:58.103Z,44.80
2019-01-27T17:05:29.068Z,41.17
2019-01-27T17:07:59.932Z,42.97
2019-01-27T17:10:30.799Z,37.63
2019-01-27T17:13:01.638Z,53.93
2019-01-27T17:15:32.845Z,54.43
2019-01-27T17:18:03.539Z,52.83
2019-01-27T17:20:34.477Z,47.53
2019-01-27T17:23:05.081Z,45.87
2019-01-27T17:25:35.654Z,58.70
2019-01-27T17:28:06.652Z,57.37
2019-01-27T17:30:37.965Z,63.90
2019-01-27T17:33:08.861Z,67.77
2019-01-27T17:35:39.489Z,63.63
2019-01-27T17:38:10.107Z,56.50
2019-01-27T17:40:41.245Z,53.53
2019-01-27T17:43:11.767Z,63.87
2019-01-27T17:45:42.871Z,62.10
2019-01-27T17:48:13.739Z,60.37
2019-01-27T17:50:44.603Z,63.03
2019-01-27T17:53:15.708Z,55.53
2019-01-27T17:55:46.489Z,59.70
2019-01-27T17:58:54.279Z,55.27
2019-01-27T18:01:43.311Z,56.70
2019-01-27T18:04:31.699Z,59.83
2019-01-27T18:07:27.553Z,66.27
2019-01-27T18:10:26.237Z,64.30
2019-01-27T18:13:10.838Z,63.30
2019-01-27T18:15:41.814Z,65.63
2019-01-27T18:18:12.390Z,70.20
2019-01-27T18:20:43.516Z,63.63
2019-01-27T18:23:14.171Z,67.17
2019-01-27T18:25:50.891Z,61.33
2019-01-27T18:28:21.768Z,55.50
2019-01-27T18:30:53.803Z,52.17
2019-01-27T18:33:24.323Z,60.37
2019-01-27T18:35:55.214Z,58.40
2019-01-27T18:38:25.717Z,54.33
2019-01-27T18:40:56.670Z,50.00
2019-01-27T18:43:27.391Z,50.60
2019-01-27T18:45:58.075Z,51.33
2019-01-27T18:48:29.110Z,52.40
2019-01-27T18:51:00.084Z,51.30
2019-01-27T18:53:48.601Z,47.60
2019-01-27T18:56:27.970Z,49.57
2019-01-27T18:59:15.925Z,45.73
2019-01-27T19:02:08.694Z,48.40
2019-01-27T19:04:53.849Z,46.53
2019-01-27T19:07:52.753Z,50.47
2019-01-27T19:10:30.039Z,46.07
2019-01-27T19:13:38.719Z,46.13
2019-01-27T19:16:28.288Z,43.83
2019-01-27T19:19:08.226Z,43.30
2019-01-27T19:22:01.523Z,47.13
2019-01-27T19:25:09.622Z,42.93
2019-01-27T19:27:54.963Z,46.97
2019-01-27T19:30:47.446Z,46.57
2019-01-27T19:33:32.543Z,45.67
2019-01-27T19:36:25.168Z,45.57
2019-01-27T19:39:13.648Z,49.63
2019-01-27T19:41:53.501Z,48.70
2019-01-27T19:44:34.632Z,46.20
2019-01-27T19:47:27.387Z,44.13
2019-01-27T19:50:32.620Z,45.83
2019-01-27T19:53:26.962Z,47.33
2019-01-27T19:56:22.197Z,41.53
2019-01-27T19:59:08.635Z,38.87
2019-01-27T20:01:56.490Z,39.00
2019-01-27T20:04:44.822Z,35.13
2019-01-27T20:07:36.945Z,33.63
2019-01-27T20:10:21.324Z,33.03
2019-01-27T20:13:08.498Z,36.60
2019-01-27T20:15:51.706Z,35.80
2019-01-27T20:18:39.609Z,34.20
2019-01-27T20:21:27.900Z,34.77
2019-01-27T20:24:10.684Z,38.90
2019-01-27T20:27:18.656Z,35.60
2019-01-27T20:30:08.431Z,36.80
2019-01-27T20:33:03.796Z,32.40
2019-01-27T20:35:52.029Z,34.20
2019-01-27T20:38:50.717Z,31.87
2019-01-27T20:41:32.242Z,32.53
2019-01-27T20:44:26.276Z,30.93
2019-01-27T20:47:06.839Z,34.90
2019-01-27T20:50:05.132Z,36.57
2019-01-27T20:52:56.059Z,38.17
2019-01-27T20:55:58.009Z,43.30
2019-01-27T20:58:40.582Z,41.90
2019-01-27T21:01:42.264Z,42.00
2019-01-27T21:04:35.314Z,37.63
2019-01-27T21:07:26.614Z,39.77
2019-01-27T21:10:16.117Z,43.70
2019-01-27T21:13:03.895Z,41.03
2019-01-27T21:15:51.602Z,40.63
2019-01-27T21:18:30.028Z,46.53
2019-01-27T21:21:00.651Z,48.70
2019-01-27T21:23:31.217Z,47.47
2019-01-27T21:26:01.869Z,61.43
2019-01-27T21:28:32.543Z,64.30
2019-01-27T21:31:03.188Z,54.37
2019-01-27T21:33:33.985Z,61.60
2019-01-27T21:36:05.157Z,59.63
2019-01-27T21:38:36.467Z,52.70
2019-01-27T21:41:07.486Z,70.80
2019-01-27T21:43:38.023Z,74.90
2019-01-27T21:46:08.766Z,58.17
2019-01-27T21:48:39.762Z,54.67
2019-01-27T21:51:10.331Z,58.47
2019-01-27T21:53:41.377Z,68.17
2019-01-27T21:56:11.923Z,58.63
2019-01-27T21:58:42.507Z,66.27
2019-01-27T22:01:13.413Z,67.87
2019-01-27T22:03:44.033Z,73.23
2019-01-27T22:06:14.629Z,77.93
2019-01-27T22:08:45.624Z,77.80
2019-01-27T22:11:16.196Z,68.23
2019-01-27T22:13:46.920Z,65.83
2019-01-27T22:16:17.530Z,62.53
2019-01-27T22:18:48.151Z,65.43
2019-01-27T22:21:18.832Z,64.97
2019-01-27T22:23:49.737Z,58.93
2019-01-27T22:26:20.351Z,57.10
2019-01-27T22:28:51.195Z,60.63
2019-01-27T22:31:22.178Z,55.30
2019-01-27T22:33:52.848Z,53.93
2019-01-27T22:36:23.393Z,56.37
2019-01-27T22:38:54.131Z,52.50
2019-01-27T22:41:24.868Z,55.10
2019-01-27T22:43:55.396Z,55.43
2019-01-27T22:46:27.878Z,57.23
2019-01-27T22:48:58.803Z,55.67
2019-01-27T22:51:29.404Z,55.63
2019-01-27T22:53:59.921Z,57.60
2019-01-27T22:56:30.909Z,57.03
2019-01-27T22:59:01.436Z,55.27
2019-01-27T23:01:32.259Z,55.87
2019-01-27T23:04:02.897Z,57.70
2019-01-27T23:06:33.514Z,56.00
2019-01-27T23:09:07.320Z,55.23
2019-01-27T23:11:38.183Z,49.87
2019-01-27T23:14:08.971Z,50.80
2019-01-27T23:16:39.541Z,54.13
2019-01-27T23:19:10.092Z,56.93
2019-01-27T23:21:40.790Z,59.23
2019-01-27T23:24:11.332Z,51.97
2019-01-27T23:26:41.973Z,54.83
2019-01-27T23:29:12.663Z,60.87
2019-01-27T23:31:43.373Z,59.73
2019-01-27T23:34:14.145Z,52.47
2019-01-27T23:36:44.690Z,55.27
2019-01-27T23:39:15.329Z,55.43
2019-01-27T23:41:45.945Z,54.80
2019-01-27T23:44:16.465Z,57.70
2019-01-27T23:46:47.323Z,51.13
2019-01-27T23:49:18.085Z,53.30
2019-01-27T23:51:48.789Z,60.03
2019-01-27T23:54:19.554Z,50.37
2019-01-27T23:56:50.189Z,56.43
2019-01-27T23:59:20.738Z,50.90
